Time;durP1;ratioP1;P1;durP2;ratioP2;P2;SDS_P1;SDS_P2;PMS_P1;PMS_P2;Temp;Humidity;BMP_temperature;BMP_pressure;BME280_temperature;BME280_humidity;BME280_pressure;Samples;Min_cycle;Max_cycle;Signal;HPM_P1;HPM_P2
2021/05/08 00:00:15;;;;;;;1.40;1.40;;;;;;;;;;5072752;28;20170;-64
2021/05/08 00:02:41;;;;;;;1.23;1.23;;;;;;;;;;5091457;28;20271;-64
2021/05/08 00:05:07;;;;;;;2.15;1.25;;;;;;;;;;5073546;28;20206;-64
2021/05/08 00:07:33;;;;;;;1.80;1.65;;;;;;;;;;5091459;28;20353;-64
2021/05/08 00:09:59;;;;;;;2.05;1.95;;;;;;;;;;5090733;28;20170;-64
2021/05/08 00:12:25;;;;;;;1.73;1.20;;;;;;;;;;5091503;28;20172;-64
2021/05/08 00:14:51;;;;;;;2.47;1.30;;;;;;;;;;5073442;28;20471;-64
2021/05/08 00:17:17;;;;;;;1.87;1.40;;;;;;;;;;5091381;28;20593;-64
2021/05/08 00:19:43;;;;;;;1.83;1.73;;;;;;;;;;5090742;28;20463;-63
2021/05/08 00:22:09;;;;;;;1.27;1.20;;;;;;;;;;5091279;28;20637;-63
2021/05/08 00:24:35;;;;;;;1.75;1.67;;;;;;;;;;5091440;28;20216;-63
2021/05/08 00:27:01;;;;;;;1.55;1.45;;;;;;;;;;5091258;28;20192;-64
2021/05/08 00:29:27;;;;;;;1.00;0.95;;;;;;;;;;5090636;28;20176;-63
2021/05/08 00:31:53;;;;;;;2.03;1.85;;;;;;;;;;5091218;28;20203;-63
2021/05/08 00:34:19;;;;;;;1.17;1.08;;;;;;;;;;5091284;28;20596;-64
2021/05/08 00:36:45;;;;;;;0.95;0.95;;;;;;;;;;5091269;28;20171;-63
2021/05/08 00:39:11;;;;;;;0.93;0.93;;;;;;;;;;5090659;28;20168;-64
2021/05/08 00:41:37;;;;;;;1.73;1.63;;;;;;;;;;5091199;28;20194;-63
2021/05/08 00:44:04;;;;;;;1.02;1.02;;;;;;;;;;5095209;28;20166;-63
2021/05/08 00:46:30;;;;;;;1.63;1.63;;;;;;;;;;5094915;28;20168;-63
2021/05/08 00:48:57;;;;;;;1.42;1.33;;;;;;;;;;5094473;28;20641;-63
2021/05/08 00:51:23;;;;;;;3.85;3.03;;;;;;;;;;5094891;28;20199;-63
2021/05/08 00:53:49;;;;;;;4.00;1.70;;;;;;;;;;5095018;28;20168;-64
2021/05/08 00:56:15;;;;;;;0.90;0.90;;;;;;;;;;5094932;28;20178;-63
2021/05/08 00:58:42;;;;;;;0.93;0.93;;;;;;;;;;5094823;28;20400;-63
2021/05/08 01:01:08;;;;;;;2.05;1.58;;;;;;;;;;5094359;28;20190;-63
2021/05/08 01:03:34;;;;;;;0.80;0.80;;;;;;;;;;5094935;28;20179;-63
2021/05/08 01:06:01;;;;;;;1.77;1.67;;;;;;;;;;5094922;28;20174;-63
2021/05/08 01:08:27;;;;;;;1.20;1.10;;;;;;;;;;5094528;28;20263;-63
2021/05/08 01:10:53;;;;;;;1.05;1.05;;;;;;;;;;5094060;28;20857;-63
2021/05/08 01:13:19;;;;;;;0.77;0.77;;;;;;;;;;5094730;28;20638;-63
2021/05/08 01:15:45;;;;;;;0.75;0.75;;;;;;;;;;5094560;28;20171;-63
2021/05/08 01:18:11;;;;;;;1.13;1.13;;;;;;;;;;5094562;28;20170;-63
2021/05/08 01:20:37;;;;;;;1.40;1.40;;;;;;;;;;5093694;28;20602;-63
2021/05/08 01:23:03;;;;;;;1.58;1.40;;;;;;;;;;5094550;28;20202;-63
2021/05/08 01:25:29;;;;;;;1.45;1.33;;;;;;;;;;5094371;28;20175;-63
2021/05/08 01:27:56;;;;;;;0.95;0.95;;;;;;;;;;5094159;28;20245;-63
2021/05/08 01:30:23;;;;;;;1.33;1.27;;;;;;;;;;5093498;28;20882;-63
2021/05/08 01:32:50;;;;;;;3.53;1.70;;;;;;;;;;5094239;28;20179;-63
2021/05/08 01:35:16;;;;;;;1.80;1.80;;;;;;;;;;5094325;28;20260;-63
2021/05/08 01:37:42;;;;;;;1.55;1.50;;;;;;;;;;5091524;28;20759;-63
2021/05/08 01:40:12;;;;;;;0.80;0.80;;;;;;;;;;5075279;28;20172;-63
2021/05/08 01:42:38;;;;;;;0.90;0.90;;;;;;;;;;5094339;28;20237;-63
2021/05/08 01:45:08;;;;;;;0.93;0.93;;;;;;;;;;5094360;28;20170;-61
2021/05/08 01:47:34;;;;;;;1.95;1.60;;;;;;;;;;5094101;28;20241;-62
2021/05/08 01:50:00;;;;;;;1.27;1.27;;;;;;;;;;5093573;28;20175;-63
2021/05/08 01:52:26;;;;;;;0.80;0.80;;;;;;;;;;5094707;28;20182;-63
2021/05/08 01:54:52;;;;;;;1.20;1.20;;;;;;;;;;5093008;28;20766;-63
2021/05/08 01:57:18;;;;;;;1.42;1.33;;;;;;;;;;5093841;28;20166;-63
2021/05/08 01:59:44;;;;;;;4.03;3.10;;;;;;;;;;5093130;28;20174;-63
2021/05/08 02:02:10;;;;;;;1.73;1.43;;;;;;;;;;5093703;28;20919;-63
2021/05/08 02:04:36;;;;;;;1.60;1.50;;;;;;;;;;5093557;28;20409;-63
2021/05/08 02:07:02;;;;;;;1.58;1.40;;;;;;;;;;5093377;28;20456;-63
2021/05/08 02:09:28;;;;;;;1.98;1.45;;;;;;;;;;5092903;28;20167;-63
2021/05/08 02:11:54;;;;;;;1.60;1.50;;;;;;;;;;5093441;28;20243;-63
2021/05/08 02:14:20;;;;;;;1.05;0.98;;;;;;;;;;5093561;28;20167;-63
2021/05/08 02:16:46;;;;;;;1.10;1.10;;;;;;;;;;5093441;28;20174;-63
2021/05/08 02:19:13;;;;;;;1.95;1.85;;;;;;;;;;5092614;28;20170;-63
2021/05/08 02:21:39;;;;;;;2.53;2.33;;;;;;;;;;5093252;28;20273;-63
2021/05/08 02:24:05;;;;;;;1.15;1.15;;;;;;;;;;5093299;28;20258;-63
2021/05/08 02:26:32;;;;;;;1.08;0.98;;;;;;;;;;5093187;28;20177;-63
2021/05/08 02:28:58;;;;;;;2.70;2.60;;;;;;;;;;5092455;28;20205;-63
2021/05/08 02:31:24;;;;;;;2.30;2.17;;;;;;;;;;5092668;28;20186;-63
2021/05/08 02:33:50;;;;;;;1.30;1.30;;;;;;;;;;5092998;28;20195;-63
2021/05/08 02:36:16;;;;;;;1.73;1.63;;;;;;;;;;5093045;28;20447;-63
2021/05/08 02:38:42;;;;;;;2.60;2.08;;;;;;;;;;5092744;28;20596;-63
2021/05/08 02:41:08;;;;;;;1.15;1.15;;;;;;;;;;5092328;28;20196;-63
2021/05/08 02:43:34;;;;;;;0.60;0.60;;;;;;;;;;5092839;28;20636;-63
2021/05/08 02:46:00;;;;;;;1.33;1.23;;;;;;;;;;5092885;28;20205;-63
2021/05/08 02:48:26;;;;;;;0.60;0.60;;;;;;;;;;5090547;28;20987;-63
2021/05/08 02:50:52;;;;;;;1.97;1.87;;;;;;;;;;5091908;28;20343;-63
2021/05/08 02:53:18;;;;;;;2.15;2.05;;;;;;;;;;5092617;28;20429;-63
2021/05/08 02:55:44;;;;;;;1.00;0.90;;;;;;;;;;5092638;28;20774;-63
2021/05/08 02:58:10;;;;;;;1.27;1.27;;;;;;;;;;5092545;28;20179;-63
2021/05/08 03:00:36;;;;;;;1.33;1.33;;;;;;;;;;5091937;28;20199;-63
2021/05/08 03:03:02;;;;;;;1.20;1.20;;;;;;;;;;5092558;28;20163;-63
2021/05/08 03:05:28;;;;;;;0.95;0.95;;;;;;;;;;5092157;28;20197;-63
2021/05/08 03:07:54;;;;;;;1.17;1.15;;;;;;;;;;5092301;28;20213;-63
2021/05/08 03:10:20;;;;;;;0.65;0.65;;;;;;;;;;5091915;28;20301;-61
2021/05/08 03:12:46;;;;;;;1.20;1.20;;;;;;;;;;5092539;28;20163;-63
2021/05/08 03:15:12;;;;;;;1.08;1.08;;;;;;;;;;5092972;28;20175;-63
2021/05/08 03:17:38;;;;;;;2.17;2.08;;;;;;;;;;5074955;28;20171;-63
2021/05/08 03:20:04;;;;;;;1.00;1.00;;;;;;;;;;5092545;28;20588;-63
2021/05/08 03:22:30;;;;;;;1.27;1.17;;;;;;;;;;5093205;28;20266;-63
2021/05/08 03:24:56;;;;;;;1.13;1.13;;;;;;;;;;5093207;28;20177;-63
2021/05/08 03:27:22;;;;;;;0.90;0.90;;;;;;;;;;5093180;28;20202;-63
2021/05/08 03:29:48;;;;;;;1.35;1.35;;;;;;;;;;5092450;28;20476;-63
2021/05/08 03:32:14;;;;;;;1.10;1.10;;;;;;;;;;5093655;28;20235;-63
2021/05/08 03:34:40;;;;;;;1.58;1.20;;;;;;;;;;5093990;28;20166;-63
2021/05/08 03:37:06;;;;;;;1.98;1.30;;;;;;;;;;5094760;28;20182;-63
2021/05/08 03:39:32;;;;;;;1.38;1.25;;;;;;;;;;5093882;28;20216;-63
2021/05/08 03:41:58;;;;;;;0.95;0.95;;;;;;;;;;5093246;28;20561;-63
2021/05/08 03:44:24;;;;;;;1.45;1.45;;;;;;;;;;5093261;28;20175;-63
2021/05/08 03:46:50;;;;;;;0.70;0.70;;;;;;;;;;5093181;28;20537;-63
2021/05/08 03:49:16;;;;;;;1.35;1.35;;;;;;;;;;5091252;28;20174;-63
2021/05/08 03:51:42;;;;;;;1.23;1.23;;;;;;;;;;5091594;28;20202;-63
2021/05/08 03:54:08;;;;;;;1.13;1.13;;;;;;;;;;5092931;28;20657;-63
2021/05/08 03:56:36;;;;;;;1.70;1.38;;;;;;;;;;5092348;28;20198;-63
2021/05/08 03:59:02;;;;;;;1.00;1.00;;;;;;;;;;5091333;28;20181;-63
2021/05/08 04:01:28;;;;;;;1.35;1.25;;;;;;;;;;5095694;28;20669;-63
2021/05/08 04:03:55;;;;;;;0.80;0.80;;;;;;;;;;5092257;28;20174;-63
2021/05/08 04:06:21;;;;;;;1.55;1.42;;;;;;;;;;5091830;28;20423;-63
2021/05/08 04:08:48;;;;;;;0.93;0.93;;;;;;;;;;5091159;28;20400;-63
2021/05/08 04:11:14;;;;;;;1.45;1.45;;;;;;;;;;5091373;28;20210;-63
2021/05/08 04:13:40;;;;;;;1.20;1.10;;;;;;;;;;5091528;28;20251;-63
2021/05/08 04:16:06;;;;;;;0.93;0.93;;;;;;;;;;5073280;28;20282;-63
2021/05/08 04:18:32;;;;;;;1.40;1.40;;;;;;;;;;5094858;28;20413;-63
2021/05/08 04:20:58;;;;;;;0.88;0.88;;;;;;;;;;5095102;28;20281;-63
2021/05/08 04:23:24;;;;;;;0.90;0.90;;;;;;;;;;5095843;28;20209;-62
2021/05/08 04:25:50;;;;;;;5.30;1.57;;;;;;;;;;5095791;28;20961;-63
2021/05/08 04:28:16;;;;;;;1.20;1.17;;;;;;;;;;5096541;28;20452;-63
2021/05/08 04:30:42;;;;;;;0.60;0.60;;;;;;;;;;5095415;28;20427;-63
2021/05/08 04:33:08;;;;;;;5.38;2.00;;;;;;;;;;5095999;28;20447;-63
2021/05/08 04:35:34;;;;;;;5.10;2.30;;;;;;;;;;5096015;28;20199;-63
2021/05/08 04:38:04;;;;;;;0.60;0.60;;;;;;;;;;5095434;28;20408;-63
2021/05/08 04:40:30;;;;;;;0.95;0.95;;;;;;;;;;5095017;28;20432;-63
2021/05/08 04:42:56;;;;;;;1.05;1.05;;;;;;;;;;5095985;28;20175;-63
2021/05/08 04:45:25;;;;;;;1.23;1.23;;;;;;;;;;5095672;28;20171;-63
2021/05/08 04:47:52;;;;;;;0.60;0.60;;;;;;;;;;5095512;28;20562;-63
2021/05/08 04:50:18;;;;;;;2.15;1.20;;;;;;;;;;5094684;28;20191;-63
2021/05/08 04:52:44;;;;;;;2.17;1.45;;;;;;;;;;5095167;28;20178;-62
2021/05/08 04:55:10;;;;;;;1.63;1.38;;;;;;;;;;5095303;28;20202;-63
2021/05/08 04:57:38;;;;;;;1.27;1.23;;;;;;;;;;5076651;28;20681;-63
2021/05/08 05:00:04;;;;;;;1.55;1.45;;;;;;;;;;5094463;28;20601;-62
2021/05/08 05:02:30;;;;;;;1.85;1.75;;;;;;;;;;5095047;28;20202;-63
2021/05/08 05:04:56;;;;;;;0.93;0.93;;;;;;;;;;5094849;28;20216;-62
2021/05/08 05:07:22;;;;;;;1.67;1.58;;;;;;;;;;5094741;28;20194;-62
2021/05/08 05:09:48;;;;;;;1.27;1.10;;;;;;;;;;5094173;28;20266;-63
2021/05/08 05:12:14;;;;;;;1.33;1.30;;;;;;;;;;5094689;28;20219;-62
2021/05/08 05:14:43;;;;;;;1.40;1.40;;;;;;;;;;5094684;28;20401;-63
2021/05/08 05:17:09;;;;;;;1.45;1.35;;;;;;;;;;5094662;28;20472;-63
2021/05/08 05:19:35;;;;;;;1.60;1.60;;;;;;;;;;5094158;28;20167;-63
2021/05/08 05:22:01;;;;;;;0.80;0.80;;;;;;;;;;5094588;28;20197;-63
2021/05/08 05:24:27;;;;;;;1.30;1.30;;;;;;;;;;5094570;28;20640;-62
2021/05/08 05:26:53;;;;;;;2.03;1.53;;;;;;;;;;5094273;28;20180;-63
2021/05/08 05:29:19;;;;;;;1.77;1.67;;;;;;;;;;5093511;28;20952;-63
2021/05/08 05:31:45;;;;;;;1.52;1.42;;;;;;;;;;5094280;28;20424;-63
2021/05/08 05:34:11;;;;;;;2.20;2.00;;;;;;;;;;5094384;28;20541;-63
2021/05/08 05:36:37;;;;;;;0.98;0.98;;;;;;;;;;5087755;28;20179;-63
2021/05/08 05:39:03;;;;;;;1.85;1.58;;;;;;;;;;5072996;28;20229;-63
2021/05/08 05:41:29;;;;;;;0.50;0.50;;;;;;;;;;5073519;28;20196;-63
2021/05/08 05:43:55;;;;;;;1.00;1.00;;;;;;;;;;5073598;28;20192;-61
2021/05/08 05:46:21;;;;;;;1.98;1.92;;;;;;;;;;5073691;28;20171;-63
2021/05/08 05:48:47;;;;;;;1.25;1.25;;;;;;;;;;5072800;28;20209;-63
2021/05/08 05:51:13;;;;;;;1.10;1.10;;;;;;;;;;5074107;28;20578;-63
2021/05/08 05:53:39;;;;;;;2.10;2.00;;;;;;;;;;5092071;28;20409;-63
2021/05/08 05:56:05;;;;;;;0.70;0.70;;;;;;;;;;5093575;28;20183;-63
2021/05/08 05:58:31;;;;;;;1.38;1.33;;;;;;;;;;5093557;28;20158;-62
2021/05/08 06:00:57;;;;;;;0.65;0.65;;;;;;;;;;5093244;28;20229;-62
2021/05/08 06:03:25;;;;;;;1.35;1.35;;;;;;;;;;5093506;28;20173;-62
2021/05/08 06:05:51;;;;;;;3.25;2.33;;;;;;;;;;5093529;28;20164;-62
2021/05/08 06:08:17;;;;;;;1.93;1.83;;;;;;;;;;5093340;28;20601;-62
2021/05/08 06:10:43;;;;;;;1.63;1.52;;;;;;;;;;5092144;28;20472;-62
2021/05/08 06:13:09;;;;;;;1.30;1.30;;;;;;;;;;5093609;28;20163;-62
2021/05/08 06:15:35;;;;;;;1.30;1.30;;;;;;;;;;5093508;28;20208;-62
2021/05/08 06:18:01;;;;;;;0.60;0.60;;;;;;;;;;5093415;28;20407;-62
2021/05/08 06:20:27;;;;;;;1.42;1.33;;;;;;;;;;5092687;28;20241;-62
2021/05/08 06:22:53;;;;;;;1.30;1.20;;;;;;;;;;5093225;28;20169;-62
2021/05/08 06:25:20;;;;;;;3.72;3.15;;;;;;;;;;5093113;28;20180;-62
2021/05/08 06:27:46;;;;;;;1.63;1.52;;;;;;;;;;5093182;28;20251;-62
2021/05/08 06:30:13;;;;;;;0.80;0.70;;;;;;;;;;5092525;28;20211;-62
2021/05/08 06:32:39;;;;;;;1.20;1.10;;;;;;;;;;5093224;28;20407;-63
2021/05/08 06:35:05;;;;;;;1.60;1.58;;;;;;;;;;5092987;28;20173;-63
2021/05/08 06:37:33;;;;;;;1.25;1.15;;;;;;;;;;5092981;28;20186;-63
2021/05/08 06:39:59;;;;;;;0.98;0.98;;;;;;;;;;5091704;28;20181;-63
2021/05/08 06:42:25;;;;;;;1.20;1.20;;;;;;;;;;5093184;28;20174;-63
2021/05/08 06:44:51;;;;;;;0.60;0.60;;;;;;;;;;5092963;28;20642;-63
2021/05/08 06:47:17;;;;;;;1.40;1.10;;;;;;;;;;5074473;28;20452;-63
2021/05/08 06:49:43;;;;;;;0.68;0.68;;;;;;;;;;5091944;28;20520;-63
2021/05/08 06:52:09;;;;;;;0.88;0.88;;;;;;;;;;5092435;28;20588;-63
2021/05/08 06:54:35;;;;;;;0.93;0.93;;;;;;;;;;5092635;28;20171;-63
2021/05/08 06:57:01;;;;;;;1.20;0.80;;;;;;;;;;5092502;28;20169;-63
2021/05/08 06:59:28;;;;;;;2.63;0.87;;;;;;;;;;5091996;28;20167;-63
2021/05/08 07:01:54;;;;;;;1.67;1.55;;;;;;;;;;5092728;28;20438;-63
2021/05/08 07:04:20;;;;;;;1.17;1.10;;;;;;;;;;5092580;28;20795;-63
2021/05/08 07:06:46;;;;;;;1.60;1.50;;;;;;;;;;5092386;28;21102;-63
2021/05/08 07:09:12;;;;;;;0.90;0.85;;;;;;;;;;5091735;28;20648;-63
2021/05/08 07:11:38;;;;;;;0.65;0.65;;;;;;;;;;5092601;28;20565;-63
2021/05/08 07:14:04;;;;;;;1.03;0.93;;;;;;;;;;5092446;28;20182;-63
2021/05/08 07:16:30;;;;;;;0.70;0.70;;;;;;;;;;5092298;28;20393;-63
2021/05/08 07:18:56;;;;;;;1.10;0.70;;;;;;;;;;5072987;28;20338;-63
2021/05/08 07:21:23;;;;;;;2.70;1.00;;;;;;;;;;5089660;28;20863;-63
2021/05/08 07:23:49;;;;;;;0.98;0.98;;;;;;;;;;5091789;28;20447;-63
2021/05/08 07:26:15;;;;;;;1.47;1.37;;;;;;;;;;5091925;28;20664;-63
2021/05/08 07:28:41;;;;;;;1.20;1.20;;;;;;;;;;5091508;28;20455;-64
2021/05/08 07:31:07;;;;;;;0.70;0.70;;;;;;;;;;5090320;28;20417;-64
2021/05/08 07:33:33;;;;;;;1.05;0.75;;;;;;;;;;5091656;28;20401;-63
2021/05/08 07:35:59;;;;;;;1.35;1.25;;;;;;;;;;5091499;28;20178;-62
2021/05/08 07:38:25;;;;;;;1.37;1.33;;;;;;;;;;5091623;28;20592;-63
2021/05/08 07:40:51;;;;;;;1.97;1.47;;;;;;;;;;5090760;28;20420;-63
2021/05/08 07:43:18;;;;;;;1.23;0.95;;;;;;;;;;5091379;28;20412;-63
2021/05/08 07:45:44;;;;;;;2.30;2.20;;;;;;;;;;5091550;28;20178;-63
2021/05/08 07:48:10;;;;;;;0.82;0.80;;;;;;;;;;5091208;28;20194;-63
2021/05/08 07:50:36;;;;;;;1.05;1.05;;;;;;;;;;5072408;28;20194;-62
2021/05/08 07:53:03;;;;;;;0.65;0.65;;;;;;;;;;5090563;28;20194;-63
2021/05/08 07:55:29;;;;;;;0.95;0.95;;;;;;;;;;5072956;28;20211;-63
2021/05/08 07:57:55;;;;;;;1.00;1.00;;;;;;;;;;5091314;28;20689;-63
2021/05/08 08:00:22;;;;;;;0.98;0.82;;;;;;;;;;5090592;28;20268;-63
2021/05/08 08:02:51;;;;;;;1.10;0.90;;;;;;;;;;5091364;28;20641;-63
2021/05/08 08:05:18;;;;;;;1.00;1.00;;;;;;;;;;5073134;28;20182;-62
2021/05/08 08:07:44;;;;;;;0.80;0.80;;;;;;;;;;5091102;28;20202;-62
2021/05/08 08:10:10;;;;;;;1.30;1.20;;;;;;;;;;5090670;28;20162;-62
2021/05/08 08:12:38;;;;;;;1.55;1.45;;;;;;;;;;5091351;28;20162;-63
2021/05/08 08:15:04;;;;;;;0.90;0.90;;;;;;;;;;5091234;28;20253;-63
2021/05/08 08:17:32;;;;;;;1.20;1.20;;;;;;;;;;5091136;28;20638;-63
2021/05/08 08:19:58;;;;;;;1.25;1.20;;;;;;;;;;5090060;28;20183;-63
2021/05/08 08:22:24;;;;;;;1.35;1.25;;;;;;;;;;5091279;28;20163;-63
2021/05/08 08:24:50;;;;;;;1.50;1.40;;;;;;;;;;5091155;28;20261;-63
2021/05/08 08:27:16;;;;;;;1.43;1.33;;;;;;;;;;5090994;28;20306;-63
2021/05/08 08:29:42;;;;;;;1.50;1.40;;;;;;;;;;5090472;28;20416;-63
2021/05/08 08:32:08;;;;;;;1.63;1.07;;;;;;;;;;5090530;28;20424;-63
2021/05/08 08:34:34;;;;;;;0.63;0.63;;;;;;;;;;5091042;28;20456;-64
2021/05/08 08:37:01;;;;;;;1.50;1.40;;;;;;;;;;5091003;28;20376;-63
2021/05/08 08:39:28;;;;;;;1.40;1.30;;;;;;;;;;5090393;28;20470;-62
2021/05/08 08:41:55;;;;;;;1.27;1.17;;;;;;;;;;5090812;28;20420;-64
2021/05/08 08:44:21;;;;;;;0.97;0.90;;;;;;;;;;5090727;28;20451;-62
2021/05/08 08:46:47;;;;;;;1.17;1.07;;;;;;;;;;5090781;28;20399;-62
2021/05/08 08:49:14;;;;;;;2.10;1.20;;;;;;;;;;5090180;28;20959;-62
2021/05/08 08:51:40;;;;;;;1.30;1.00;;;;;;;;;;5090440;28;20471;-62
2021/05/08 08:54:07;;;;;;;1.37;1.23;;;;;;;;;;5090891;28;20408;-62
2021/05/08 08:56:41;;;;;;;1.20;1.10;;;;;;;;;;5090493;28;20397;-64
2021/05/08 08:59:14;;;;;;;0.83;0.80;;;;;;;;;;5090257;28;20379;-64
2021/05/08 09:01:41;;;;;;;1.33;1.10;;;;;;;;;;5090762;28;20837;-64
2021/05/08 09:04:09;;;;;;;1.30;1.20;;;;;;;;;;5093219;28;20509;-64
2021/05/08 09:06:35;;;;;;;1.23;1.10;;;;;;;;;;5094655;28;20383;-64
2021/05/08 09:09:01;;;;;;;0.93;0.90;;;;;;;;;;5093518;28;20462;-64
2021/05/08 09:11:27;;;;;;;1.10;1.10;;;;;;;;;;5094870;28;21109;-64
2021/05/08 09:14:13;;;;;;;0.70;0.70;;;;;;;;;;5094611;28;20443;-64
2021/05/08 09:16:39;;;;;;;0.70;0.70;;;;;;;;;;5094224;28;20459;-64
2021/05/08 09:19:18;;;;;;;1.23;1.10;;;;;;;;;;5093556;28;20383;-64
2021/05/08 09:21:44;;;;;;;0.93;0.83;;;;;;;;;;5093823;28;20466;-63
2021/05/08 09:24:10;;;;;;;0.63;0.63;;;;;;;;;;5079661;28;20389;-63
2021/05/08 09:26:38;;;;;;;0.97;0.97;;;;;;;;;;5081238;28;20426;-63
2021/05/08 09:29:16;;;;;;;0.70;0.70;;;;;;;;;;5073118;28;20904;-64
2021/05/08 09:31:54;;;;;;;0.77;0.77;;;;;;;;;;5073138;28;20948;-64
2021/05/08 09:34:21;;;;;;;3.20;0.80;;;;;;;;;;5073373;28;20393;-63
2021/05/08 09:36:53;;;;;;;0.70;0.70;;;;;;;;;;5073357;28;20443;-63
2021/05/08 09:39:29;;;;;;;1.23;1.07;;;;;;;;;;5072619;28;20807;-63
2021/05/08 09:41:55;;;;;;;0.90;0.90;;;;;;;;;;5073217;28;20421;-63
2021/05/08 09:44:21;;;;;;;1.00;0.90;;;;;;;;;;5072995;28;20915;-63
2021/05/08 09:46:47;;;;;;;1.00;1.00;;;;;;;;;;5073021;28;20769;-64
2021/05/08 09:49:14;;;;;;;1.10;1.00;;;;;;;;;;5072355;28;20485;-64
2021/05/08 09:51:41;;;;;;;1.17;1.13;;;;;;;;;;5072887;28;21103;-64
2021/05/08 09:54:09;;;;;;;1.37;1.27;;;;;;;;;;5073211;28;20402;-64
2021/05/08 09:56:39;;;;;;;0.90;0.90;;;;;;;;;;5072580;28;20499;-64
2021/05/08 09:59:21;;;;;;;1.23;1.13;;;;;;;;;;5072050;28;20402;-64
2021/05/08 10:01:47;;;;;;;0.90;0.90;;;;;;;;;;5072853;28;20500;-64
2021/05/08 10:04:29;;;;;;;0.80;0.80;;;;;;;;;;5072879;28;20782;-64
2021/05/08 10:07:09;;;;;;;0.87;0.87;;;;;;;;;;5072578;28;20827;-64
2021/05/08 10:09:35;;;;;;;0.80;0.70;;;;;;;;;;5072217;28;20408;-64
2021/05/08 10:12:03;;;;;;;1.17;1.07;;;;;;;;;;5072928;28;20417;-63
2021/05/08 10:14:29;;;;;;;1.63;0.80;;;;;;;;;;5071917;28;20409;-64
2021/05/08 10:16:56;;;;;;;1.90;1.00;;;;;;;;;;5073056;28;20449;-64
2021/05/08 10:19:22;;;;;;;1.20;1.03;;;;;;;;;;5071785;28;20784;-63
2021/05/08 10:21:49;;;;;;;0.83;0.83;;;;;;;;;;5072046;28;20487;-64
2021/05/08 10:24:15;;;;;;;0.90;0.67;;;;;;;;;;5072796;28;20401;-64
2021/05/08 10:26:41;;;;;;;1.13;0.87;;;;;;;;;;5072632;28;20418;-63
2021/05/08 10:29:07;;;;;;;1.10;0.70;;;;;;;;;;5071771;28;20831;-62
2021/05/08 10:31:34;;;;;;;0.80;0.80;;;;;;;;;;5072437;28;20470;-63
2021/05/08 10:34:01;;;;;;;0.83;0.83;;;;;;;;;;5072340;28;20441;-63
2021/05/08 10:36:48;;;;;;;0.93;0.93;;;;;;;;;;5072498;28;20372;-62
2021/05/08 10:39:14;;;;;;;0.57;0.57;;;;;;;;;;5071529;28;20405;-62
2021/05/08 10:41:50;;;;;;;0.80;0.80;;;;;;;;;;5071886;28;20429;-63
2021/05/08 10:44:35;;;;;;;0.70;0.70;;;;;;;;;;5072188;28;20428;-63
2021/05/08 10:47:01;;;;;;;0.53;0.53;;;;;;;;;;5072030;28;20444;-63
2021/05/08 10:49:27;;;;;;;0.60;0.60;;;;;;;;;;5070731;28;20911;-63
2021/05/08 10:51:56;;;;;;;0.97;0.80;;;;;;;;;;5071013;28;20453;-63
2021/05/08 10:54:42;;;;;;;0.70;0.63;;;;;;;;;;5053993;28;20413;-63
2021/05/08 10:57:14;;;;;;;0.90;0.77;;;;;;;;;;5072321;28;20412;-65
2021/05/08 10:59:59;;;;;;;1.13;0.70;;;;;;;;;;5071902;28;20406;-64
2021/05/08 11:02:48;;;;;;;1.53;0.90;;;;;;;;;;5072028;28;20411;-64
2021/05/08 11:05:23;;;;;;;0.97;0.83;;;;;;;;;;5060491;28;20796;-65
2021/05/08 11:07:49;;;;;;;1.10;0.83;;;;;;;;;;5070618;28;20425;-64
2021/05/08 11:10:34;;;;;;;0.70;0.70;;;;;;;;;;5071039;28;20841;-64
2021/05/08 11:13:06;;;;;;;0.77;0.77;;;;;;;;;;5072631;28;20405;-64
2021/05/08 11:18:32;;;;;;;0.83;0.77;;;;;;;;;;5072753;28;20437;-64
2021/05/08 11:20:58;;;;;;;0.60;0.60;;;;;;;;;;5072080;28;20478;-64
2021/05/08 11:23:24;;;;;;;1.30;1.20;;;;;;;;;;5071852;28;20885;-64
2021/05/08 11:25:51;;;;;;;0.80;0.70;;;;;;;;;;5070643;28;20416;-64
2021/05/08 11:28:17;;;;;;;0.70;0.60;;;;;;;;;;5071513;28;20484;-64
2021/05/08 11:30:52;;;;;;;1.20;0.80;;;;;;;;;;5071115;28;20400;-64
2021/05/08 11:33:22;;;;;;;1.53;0.70;;;;;;;;;;5071425;28;21156;-64
2021/05/08 11:36:04;;;;;;;1.30;0.90;;;;;;;;;;5071680;28;20405;-65
2021/05/08 11:38:30;;;;;;;1.10;0.70;;;;;;;;;;5071413;28;20776;-64
2021/05/08 11:40:56;;;;;;;1.40;1.30;;;;;;;;;;5070900;28;20417;-64
2021/05/08 11:43:23;;;;;;;0.70;0.70;;;;;;;;;;5071665;28;20425;-64
2021/05/08 11:45:49;;;;;;;1.00;0.67;;;;;;;;;;5071583;28;20441;-64
2021/05/08 11:48:15;;;;;;;1.47;0.87;;;;;;;;;;5071600;28;20496;-64
2021/05/08 11:50:42;;;;;;;1.13;0.90;;;;;;;;;;5071872;28;20421;-64
2021/05/08 11:53:17;;;;;;;0.90;0.90;;;;;;;;;;5071689;28;20409;-64
2021/05/08 11:55:48;;;;;;;1.03;0.80;;;;;;;;;;5071704;28;20448;-64
2021/05/08 11:58:26;;;;;;;0.80;0.80;;;;;;;;;;5061115;28;20395;-64
2021/05/08 12:00:53;;;;;;;0.70;0.70;;;;;;;;;;5090529;28;20451;-64
2021/05/08 12:03:19;;;;;;;0.60;0.60;;;;;;;;;;5091719;28;20404;-64
2021/05/08 12:05:48;;;;;;;1.33;1.03;;;;;;;;;;5090901;28;20433;-64
2021/05/08 12:08:16;;;;;;;0.97;0.63;;;;;;;;;;5071358;28;20994;-64
2021/05/08 12:10:42;;;;;;;0.73;0.50;;;;;;;;;;5069960;28;20425;-64
2021/05/08 12:13:09;;;;;;;0.83;0.83;;;;;;;;;;5088866;28;20424;-64
2021/05/08 12:15:36;;;;;;;0.70;0.70;;;;;;;;;;5091589;28;20405;-64
2021/05/08 12:18:04;;;;;;;1.10;0.97;;;;;;;;;;5072512;28;20421;-64
2021/05/08 12:20:30;;;;;;;1.17;1.07;;;;;;;;;;5070673;28;20425;-64
2021/05/08 12:23:00;;;;;;;0.93;0.90;;;;;;;;;;5071259;28;20417;-64
2021/05/08 12:25:27;;;;;;;1.13;0.73;;;;;;;;;;5091324;28;20455;-64
2021/05/08 12:28:11;;;;;;;0.70;0.70;;;;;;;;;;5091194;28;20470;-64
2021/05/08 12:30:37;;;;;;;1.57;1.17;;;;;;;;;;5090394;28;20812;-64
2021/05/08 12:33:03;;;;;;;1.77;0.80;;;;;;;;;;5090906;28;20393;-64
2021/05/08 12:35:29;;;;;;;0.70;0.70;;;;;;;;;;5071203;28;20414;-64
2021/05/08 12:37:55;;;;;;;0.70;0.70;;;;;;;;;;5071806;28;21108;-64
2021/05/08 12:40:31;;;;;;;1.10;1.00;;;;;;;;;;5074172;28;20407;-64
2021/05/08 12:42:57;;;;;;;1.00;0.67;;;;;;;;;;5074873;28;20407;-64
2021/05/08 12:45:23;;;;;;;1.63;1.40;;;;;;;;;;5073851;28;20441;-64
2021/05/08 12:47:49;;;;;;;0.97;0.77;;;;;;;;;;5073359;28;20431;-66
2021/05/08 12:50:25;;;;;;;1.30;0.83;;;;;;;;;;5072941;28;20494;-65
2021/05/08 12:53:02;;;;;;;1.23;0.93;;;;;;;;;;5074951;28;20852;-64
2021/05/08 12:55:32;;;;;;;0.77;0.77;;;;;;;;;;5074824;28;20763;-66
2021/05/08 12:58:06;;;;;;;0.60;0.60;;;;;;;;;;5074675;28;20406;-65
2021/05/08 13:00:40;;;;;;;0.77;0.77;;;;;;;;;;5073807;28;20452;-64
2021/05/08 13:03:18;;;;;;;0.80;0.80;;;;;;;;;;5075431;28;20417;-65
2021/05/08 13:05:45;;;;;;;1.20;0.70;;;;;;;;;;5094709;28;20395;-65
2021/05/08 13:08:11;;;;;;;0.80;0.80;;;;;;;;;;5094488;28;20491;-64
2021/05/08 13:10:40;;;;;;;0.70;0.70;;;;;;;;;;5075803;28;20865;-64
2021/05/08 13:13:20;;;;;;;0.80;0.80;;;;;;;;;;5075346;28;20918;-64
2021/05/08 13:15:51;;;;;;;1.07;0.67;;;;;;;;;;5074520;28;20407;-64
2021/05/08 13:18:17;;;;;;;1.00;0.90;;;;;;;;;;5074297;28;20466;-63
2021/05/08 13:20:43;;;;;;;0.83;0.60;;;;;;;;;;5073579;28;20433;-63
2021/05/08 13:23:11;;;;;;;0.60;0.60;;;;;;;;;;5088786;28;20431;-65
2021/05/08 13:25:37;;;;;;;0.77;0.77;;;;;;;;;;5094374;28;20483;-65
2021/05/08 13:28:03;;;;;;;0.50;0.43;;;;;;;;;;5094361;28;20950;-64
2021/05/08 13:30:29;;;;;;;1.50;0.97;;;;;;;;;;5092703;28;20961;-63
2021/05/08 13:32:55;;;;;;;2.10;1.00;;;;;;;;;;5081712;28;20418;-65
2021/05/08 13:35:24;;;;;;;0.80;0.73;;;;;;;;;;5089141;28;20943;-64
2021/05/08 13:37:50;;;;;;;0.77;0.60;;;;;;;;;;5094249;28;20481;-64
2021/05/08 13:40:17;;;;;;;0.60;0.60;;;;;;;;;;5093381;28;20402;-64
2021/05/08 13:42:43;;;;;;;0.63;0.63;;;;;;;;;;5094116;28;20489;-64
2021/05/08 13:45:10;;;;;;;0.60;0.50;;;;;;;;;;5080445;28;20429;-64
2021/05/08 13:47:36;;;;;;;0.63;0.63;;;;;;;;;;5073787;28;20457;-64
2021/05/08 13:50:02;;;;;;;0.70;0.70;;;;;;;;;;5071775;28;20904;-64
2021/05/08 13:52:29;;;;;;;0.40;0.40;;;;;;;;;;5073715;28;20520;-64
2021/05/08 13:54:55;;;;;;;0.50;0.50;;;;;;;;;;5084469;28;20399;-63
2021/05/08 13:57:21;;;;;;;0.60;0.60;;;;;;;;;;5093763;28;20470;-63
2021/05/08 13:59:48;;;;;;;0.77;0.77;;;;;;;;;;5093154;28;20870;-63
2021/05/08 14:02:14;;;;;;;0.60;0.60;;;;;;;;;;5080871;28;20436;-63
2021/05/08 14:04:40;;;;;;;0.50;0.50;;;;;;;;;;5073533;28;20459;-63
2021/05/08 14:07:07;;;;;;;0.67;0.57;;;;;;;;;;5073302;28;20441;-63
2021/05/08 14:09:33;;;;;;;0.50;0.50;;;;;;;;;;5077730;28;20469;-63
2021/05/08 14:11:59;;;;;;;0.60;0.50;;;;;;;;;;5093706;28;20466;-63
2021/05/08 14:14:26;;;;;;;0.67;0.67;;;;;;;;;;5093557;28;20401;-63
2021/05/08 14:16:52;;;;;;;1.00;0.63;;;;;;;;;;5093315;28;20383;-63
2021/05/08 14:19:18;;;;;;;1.30;0.80;;;;;;;;;;5089435;28;20866;-63
2021/05/08 14:21:45;;;;;;;0.43;0.43;;;;;;;;;;5072200;28;20446;-65
2021/05/08 14:24:12;;;;;;;0.80;0.77;;;;;;;;;;5071456;28;20421;-63
2021/05/08 14:26:38;;;;;;;0.80;0.80;;;;;;;;;;5077136;28;20416;-63
2021/05/08 14:29:05;;;;;;;0.83;0.70;;;;;;;;;;5092328;28;20711;-63
2021/05/08 14:31:31;;;;;;;0.70;0.70;;;;;;;;;;5093135;28;20498;-65
2021/05/08 14:33:57;;;;;;;0.50;0.50;;;;;;;;;;5093127;28;20412;-63
2021/05/08 14:36:23;;;;;;;0.73;0.73;;;;;;;;;;5090008;28;20416;-63
2021/05/08 14:38:50;;;;;;;0.73;0.73;;;;;;;;;;5080938;28;20779;-63
2021/05/08 14:41:16;;;;;;;0.87;0.87;;;;;;;;;;5092634;28;20448;-63
2021/05/08 14:43:42;;;;;;;0.70;0.63;;;;;;;;;;5088506;28;20411;-65
2021/05/08 14:46:08;;;;;;;0.90;0.90;;;;;;;;;;5072834;28;20402;-65